sensor_id;sensor_type;location;lat;lon;timestamp;P1;durP1;ratioP1;P2;durP2;ratioP2
66143;SDS011;52947;50.842;6.084;2023-06-26T00:01:55;5.40;;;4.05;;
66143;SDS011;52947;50.842;6.084;2023-06-26T00:04:23;6.90;;;4.43;;
66143;SDS011;52947;50.842;6.084;2023-06-26T00:06:51;5.28;;;4.20;;
66143;SDS011;52947;50.842;6.084;2023-06-26T00:09:19;10.73;;;4.65;;
66143;SDS011;52947;50.842;6.084;2023-06-26T00:11:48;6.20;;;4.32;;
66143;SDS011;52947;50.842;6.084;2023-06-26T00:14:16;5.65;;;4.20;;
66143;SDS011;52947;50.842;6.084;2023-06-26T00:16:47;5.95;;;4.05;;
66143;SDS011;52947;50.842;6.084;2023-06-26T00:19:15;6.70;;;4.38;;
66143;SDS011;52947;50.842;6.084;2023-06-26T00:21:43;6.25;;;3.92;;
66143;SDS011;52947;50.842;6.084;2023-06-26T00:24:13;6.32;;;4.30;;
66143;SDS011;52947;50.842;6.084;2023-06-26T00:26:41;6.85;;;4.45;;
66143;SDS011;52947;50.842;6.084;2023-06-26T00:29:10;5.25;;;3.70;;
66143;SDS011;52947;50.842;6.084;2023-06-26T00:31:38;5.10;;;3.95;;
66143;SDS011;52947;50.842;6.084;2023-06-26T00:34:06;6.63;;;4.30;;
66143;SDS011;52947;50.842;6.084;2023-06-26T00:36:35;5.55;;;3.92;;
66143;SDS011;52947;50.842;6.084;2023-06-26T00:39:03;4.93;;;3.72;;
66143;SDS011;52947;50.842;6.084;2023-06-26T00:41:34;5.78;;;3.88;;
66143;SDS011;52947;50.842;6.084;2023-06-26T00:44:03;5.97;;;3.95;;
66143;SDS011;52947;50.842;6.084;2023-06-26T00:46:33;5.88;;;4.70;;
66143;SDS011;52947;50.842;6.084;2023-06-26T00:49:02;5.90;;;4.25;;
66143;SDS011;52947;50.842;6.084;2023-06-26T00:51:31;8.70;;;4.70;;
66143;SDS011;52947;50.842;6.084;2023-06-26T00:53:59;5.63;;;4.35;;
66143;SDS011;52947;50.842;6.084;2023-06-26T00:56:27;6.68;;;3.72;;
66143;SDS011;52947;50.842;6.084;2023-06-26T00:58:56;6.63;;;4.32;;
66143;SDS011;52947;50.842;6.084;2023-06-26T01:01:25;5.80;;;4.30;;
66143;SDS011;52947;50.842;6.084;2023-06-26T01:03:54;5.80;;;4.10;;
66143;SDS011;52947;50.842;6.084;2023-06-26T01:06:24;7.05;;;4.38;;
66143;SDS011;52947;50.842;6.084;2023-06-26T01:08:56;6.80;;;4.25;;
66143;SDS011;52947;50.842;6.084;2023-06-26T01:13:53;5.80;;;4.43;;
66143;SDS011;52947;50.842;6.084;2023-06-26T01:16:22;6.47;;;4.00;;
66143;SDS011;52947;50.842;6.084;2023-06-26T01:18:51;8.43;;;4.28;;
66143;SDS011;52947;50.842;6.084;2023-06-26T01:21:21;6.97;;;4.63;;
66143;SDS011;52947;50.842;6.084;2023-06-26T01:23:58;6.85;;;4.35;;
66143;SDS011;52947;50.842;6.084;2023-06-26T01:26:34;5.97;;;4.15;;
66143;SDS011;52947;50.842;6.084;2023-06-26T01:29:04;6.53;;;4.72;;
66143;SDS011;52947;50.842;6.084;2023-06-26T01:31:34;6.68;;;4.18;;
66143;SDS011;52947;50.842;6.084;2023-06-26T01:34:04;5.75;;;4.18;;
66143;SDS011;52947;50.842;6.084;2023-06-26T01:36:32;7.63;;;4.63;;
66143;SDS011;52947;50.842;6.084;2023-06-26T01:39:04;7.72;;;4.50;;
66143;SDS011;52947;50.842;6.084;2023-06-26T01:41:33;9.13;;;4.30;;
66143;SDS011;52947;50.842;6.084;2023-06-26T01:44:05;5.25;;;3.92;;
66143;SDS011;52947;50.842;6.084;2023-06-26T01:46:42;6.95;;;4.18;;
66143;SDS011;52947;50.842;6.084;2023-06-26T01:49:20;6.53;;;4.50;;
66143;SDS011;52947;50.842;6.084;2023-06-26T01:51:54;5.85;;;4.07;;
66143;SDS011;52947;50.842;6.084;2023-06-26T01:54:25;8.43;;;4.50;;
66143;SDS011;52947;50.842;6.084;2023-06-26T01:56:59;6.55;;;4.72;;
66143;SDS011;52947;50.842;6.084;2023-06-26T01:59:28;11.77;;;4.97;;
66143;SDS011;52947;50.842;6.084;2023-06-26T02:02:00;8.05;;;4.70;;
66143;SDS011;52947;50.842;6.084;2023-06-26T02:04:28;6.43;;;4.65;;
66143;SDS011;52947;50.842;6.084;2023-06-26T02:06:56;6.88;;;4.47;;
66143;SDS011;52947;50.842;6.084;2023-06-26T02:09:28;7.43;;;4.68;;
66143;SDS011;52947;50.842;6.084;2023-06-26T02:11:56;8.35;;;4.53;;
66143;SDS011;52947;50.842;6.084;2023-06-26T02:14:26;7.45;;;4.82;;
66143;SDS011;52947;50.842;6.084;2023-06-26T02:16:54;7.57;;;5.10;;
66143;SDS011;52947;50.842;6.084;2023-06-26T02:19:22;6.95;;;5.05;;
66143;SDS011;52947;50.842;6.084;2023-06-26T02:21:51;6.47;;;5.00;;
66143;SDS011;52947;50.842;6.084;2023-06-26T02:24:19;8.40;;;5.57;;
66143;SDS011;52947;50.842;6.084;2023-06-26T02:26:47;7.70;;;4.90;;
66143;SDS011;52947;50.842;6.084;2023-06-26T02:29:15;7.53;;;5.32;;
66143;SDS011;52947;50.842;6.084;2023-06-26T02:31:44;12.80;;;5.15;;
66143;SDS011;52947;50.842;6.084;2023-06-26T02:34:12;7.55;;;5.32;;
66143;SDS011;52947;50.842;6.084;2023-06-26T02:36:41;8.50;;;5.28;;
66143;SDS011;52947;50.842;6.084;2023-06-26T02:39:09;11.43;;;4.93;;
66143;SDS011;52947;50.842;6.084;2023-06-26T02:41:38;11.55;;;4.85;;
66143;SDS011;52947;50.842;6.084;2023-06-26T02:44:06;7.80;;;4.63;;
66143;SDS011;52947;50.842;6.084;2023-06-26T02:46:34;7.82;;;4.70;;
66143;SDS011;52947;50.842;6.084;2023-06-26T02:49:03;6.72;;;4.90;;
66143;SDS011;52947;50.842;6.084;2023-06-26T02:51:31;8.95;;;5.00;;
66143;SDS011;52947;50.842;6.084;2023-06-26T02:54:03;6.47;;;4.80;;
66143;SDS011;52947;50.842;6.084;2023-06-26T02:56:31;7.38;;;4.55;;
66143;SDS011;52947;50.842;6.084;2023-06-26T02:59:02;7.75;;;4.68;;
66143;SDS011;52947;50.842;6.084;2023-06-26T03:01:30;6.32;;;4.22;;
66143;SDS011;52947;50.842;6.084;2023-06-26T03:03:58;5.95;;;4.00;;
66143;SDS011;52947;50.842;6.084;2023-06-26T03:06:28;8.43;;;5.03;;
66143;SDS011;52947;50.842;6.084;2023-06-26T03:08:56;7.22;;;4.68;;
66143;SDS011;52947;50.842;6.084;2023-06-26T03:11:24;8.07;;;4.38;;
66143;SDS011;52947;50.842;6.084;2023-06-26T03:13:54;9.13;;;4.32;;
66143;SDS011;52947;50.842;6.084;2023-06-26T03:16:22;6.30;;;3.83;;
66143;SDS011;52947;50.842;6.084;2023-06-26T03:18:50;6.53;;;3.95;;
66143;SDS011;52947;50.842;6.084;2023-06-26T03:21:18;6.70;;;4.25;;
66143;SDS011;52947;50.842;6.084;2023-06-26T03:23:47;8.65;;;5.00;;
66143;SDS011;52947;50.842;6.084;2023-06-26T03:26:15;6.55;;;4.00;;
66143;SDS011;52947;50.842;6.084;2023-06-26T03:28:46;8.68;;;4.35;;
66143;SDS011;52947;50.842;6.084;2023-06-26T03:31:14;6.22;;;4.30;;
66143;SDS011;52947;50.842;6.084;2023-06-26T03:33:42;5.03;;;3.70;;
66143;SDS011;52947;50.842;6.084;2023-06-26T03:36:10;7.28;;;4.43;;
66143;SDS011;52947;50.842;6.084;2023-06-26T03:38:37;8.60;;;4.20;;
66143;SDS011;52947;50.842;6.084;2023-06-26T03:41:07;7.15;;;4.45;;
66143;SDS011;52947;50.842;6.084;2023-06-26T03:43:35;7.43;;;4.57;;
66143;SDS011;52947;50.842;6.084;2023-06-26T03:46:14;6.57;;;4.45;;
66143;SDS011;52947;50.842;6.084;2023-06-26T03:48:42;7.90;;;4.30;;
66143;SDS011;52947;50.842;6.084;2023-06-26T03:51:10;8.80;;;4.72;;
66143;SDS011;52947;50.842;6.084;2023-06-26T03:53:38;7.15;;;4.30;;
66143;SDS011;52947;50.842;6.084;2023-06-26T03:56:07;8.68;;;4.35;;
66143;SDS011;52947;50.842;6.084;2023-06-26T03:58:35;8.60;;;4.43;;
66143;SDS011;52947;50.842;6.084;2023-06-26T04:01:03;9.60;;;4.88;;
66143;SDS011;52947;50.842;6.084;2023-06-26T04:03:31;7.38;;;4.40;;
66143;SDS011;52947;50.842;6.084;2023-06-26T04:08:28;8.00;;;4.30;;
66143;SDS011;52947;50.842;6.084;2023-06-26T04:10:56;9.32;;;3.92;;
66143;SDS011;52947;50.842;6.084;2023-06-26T04:13:26;7.05;;;4.05;;
66143;SDS011;52947;50.842;6.084;2023-06-26T04:15:54;6.78;;;3.70;;
66143;SDS011;52947;50.842;6.084;2023-06-26T04:18:22;6.10;;;3.88;;
66143;SDS011;52947;50.842;6.084;2023-06-26T04:21:06;6.95;;;3.58;;
66143;SDS011;52947;50.842;6.084;2023-06-26T04:23:35;6.93;;;4.18;;
66143;SDS011;52947;50.842;6.084;2023-06-26T04:26:03;7.28;;;3.30;;
66143;SDS011;52947;50.842;6.084;2023-06-26T04:28:33;9.50;;;3.88;;
66143;SDS011;52947;50.842;6.084;2023-06-26T04:31:02;6.05;;;3.20;;
66143;SDS011;52947;50.842;6.084;2023-06-26T04:33:30;6.13;;;3.65;;
66143;SDS011;52947;50.842;6.084;2023-06-26T04:35:58;6.70;;;3.40;;
66143;SDS011;52947;50.842;6.084;2023-06-26T04:38:29;12.27;;;4.03;;
66143;SDS011;52947;50.842;6.084;2023-06-26T04:40:57;7.72;;;3.40;;
66143;SDS011;52947;50.842;6.084;2023-06-26T04:43:25;7.22;;;3.53;;
66143;SDS011;52947;50.842;6.084;2023-06-26T04:45:54;6.78;;;3.25;;
66143;SDS011;52947;50.842;6.084;2023-06-26T04:48:23;7.03;;;3.28;;
66143;SDS011;52947;50.842;6.084;2023-06-26T04:50:53;7.20;;;3.47;;
66143;SDS011;52947;50.842;6.084;2023-06-26T04:53:23;9.02;;;3.50;;
66143;SDS011;52947;50.842;6.084;2023-06-26T04:55:51;6.13;;;2.85;;
66143;SDS011;52947;50.842;6.084;2023-06-26T04:58:19;6.85;;;3.25;;
66143;SDS011;52947;50.842;6.084;2023-06-26T05:00:47;10.45;;;3.35;;
66143;SDS011;52947;50.842;6.084;2023-06-26T05:03:17;5.17;;;2.93;;
66143;SDS011;52947;50.842;6.084;2023-06-26T05:05:45;6.45;;;3.10;;
66143;SDS011;52947;50.842;6.084;2023-06-26T05:08:13;6.50;;;3.50;;
66143;SDS011;52947;50.842;6.084;2023-06-26T05:10:42;7.05;;;3.28;;
66143;SDS011;52947;50.842;6.084;2023-06-26T05:13:10;9.25;;;3.40;;
66143;SDS011;52947;50.842;6.084;2023-06-26T05:15:41;5.90;;;3.17;;
66143;SDS011;52947;50.842;6.084;2023-06-26T05:18:09;5.57;;;3.13;;
66143;SDS011;52947;50.842;6.084;2023-06-26T05:20:38;11.70;;;3.58;;
66143;SDS011;52947;50.842;6.084;2023-06-26T05:23:07;8.82;;;3.78;;
66143;SDS011;52947;50.842;6.084;2023-06-26T05:25:35;7.47;;;3.47;;
66143;SDS011;52947;50.842;6.084;2023-06-26T05:28:04;8.55;;;3.05;;
66143;SDS011;52947;50.842;6.084;2023-06-26T05:30:32;6.40;;;3.08;;
66143;SDS011;52947;50.842;6.084;2023-06-26T05:33:02;9.63;;;3.08;;
66143;SDS011;52947;50.842;6.084;2023-06-26T05:35:32;6.72;;;3.13;;
66143;SDS011;52947;50.842;6.084;2023-06-26T05:38:04;8.70;;;3.15;;
66143;SDS011;52947;50.842;6.084;2023-06-26T05:40:33;6.75;;;3.38;;
66143;SDS011;52947;50.842;6.084;2023-06-26T05:43:02;11.98;;;3.60;;
66143;SDS011;52947;50.842;6.084;2023-06-26T05:45:30;8.52;;;4.35;;
66143;SDS011;52947;50.842;6.084;2023-06-26T05:47:58;6.32;;;3.25;;
66143;SDS011;52947;50.842;6.084;2023-06-26T05:50:27;9.83;;;3.53;;
66143;SDS011;52947;50.842;6.084;2023-06-26T05:52:56;9.95;;;3.22;;
66143;SDS011;52947;50.842;6.084;2023-06-26T05:55:26;9.50;;;3.28;;
66143;SDS011;52947;50.842;6.084;2023-06-26T05:57:54;9.98;;;3.50;;
66143;SDS011;52947;50.842;6.084;2023-06-26T06:00:26;8.70;;;3.35;;
66143;SDS011;52947;50.842;6.084;2023-06-26T06:02:54;10.20;;;3.65;;
66143;SDS011;52947;50.842;6.084;2023-06-26T06:05:23;15.43;;;3.80;;
66143;SDS011;52947;50.842;6.084;2023-06-26T06:07:51;9.63;;;3.28;;
66143;SDS011;52947;50.842;6.084;2023-06-26T06:10:19;7.05;;;3.38;;
66143;SDS011;52947;50.842;6.084;2023-06-26T06:12:48;6.80;;;3.50;;
66143;SDS011;52947;50.842;6.084;2023-06-26T06:15:16;9.07;;;3.40;;
66143;SDS011;52947;50.842;6.084;2023-06-26T06:17:44;7.95;;;3.30;;
66143;SDS011;52947;50.842;6.084;2023-06-26T06:20:12;8.00;;;3.60;;
66143;SDS011;52947;50.842;6.084;2023-06-26T06:22:40;7.43;;;3.35;;
66143;SDS011;52947;50.842;6.084;2023-06-26T06:25:08;8.77;;;3.28;;
66143;SDS011;52947;50.842;6.084;2023-06-26T06:27:36;15.55;;;4.18;;
66143;SDS011;52947;50.842;6.084;2023-06-26T06:30:06;10.38;;;3.63;;
66143;SDS011;52947;50.842;6.084;2023-06-26T06:32:35;9.30;;;4.03;;
66143;SDS011;52947;50.842;6.084;2023-06-26T06:35:03;9.48;;;4.32;;
66143;SDS011;52947;50.842;6.084;2023-06-26T06:37:36;10.02;;;3.63;;
66143;SDS011;52947;50.842;6.084;2023-06-26T06:45:02;8.60;;;3.28;;
66143;SDS011;52947;50.842;6.084;2023-06-26T06:47:31;10.63;;;3.33;;
66143;SDS011;52947;50.842;6.084;2023-06-26T06:50:00;9.80;;;3.03;;
66143;SDS011;52947;50.842;6.084;2023-06-26T06:52:35;7.28;;;3.70;;
66143;SDS011;52947;50.842;6.084;2023-06-26T06:55:04;8.45;;;3.30;;
66143;SDS011;52947;50.842;6.084;2023-06-26T06:57:35;8.18;;;3.08;;
66143;SDS011;52947;50.842;6.084;2023-06-26T07:00:05;9.15;;;3.22;;
66143;SDS011;52947;50.842;6.084;2023-06-26T07:02:36;9.40;;;3.83;;
66143;SDS011;52947;50.842;6.084;2023-06-26T07:05:05;9.65;;;3.67;;
66143;SDS011;52947;50.842;6.084;2023-06-26T07:10:02;7.05;;;3.22;;
66143;SDS011;52947;50.842;6.084;2023-06-26T07:12:32;9.00;;;3.35;;
66143;SDS011;52947;50.842;6.084;2023-06-26T07:15:00;11.10;;;3.10;;
66143;SDS011;52947;50.842;6.084;2023-06-26T07:17:29;11.82;;;3.17;;
66143;SDS011;52947;50.842;6.084;2023-06-26T07:19:58;10.98;;;3.60;;
66143;SDS011;52947;50.842;6.084;2023-06-26T07:22:27;8.68;;;2.97;;
66143;SDS011;52947;50.842;6.084;2023-06-26T07:24:55;11.50;;;3.30;;
66143;SDS011;52947;50.842;6.084;2023-06-26T07:27:23;10.85;;;3.25;;
66143;SDS011;52947;50.842;6.084;2023-06-26T07:29:51;10.40;;;4.30;;
66143;SDS011;52947;50.842;6.084;2023-06-26T07:32:18;9.05;;;3.00;;
66143;SDS011;52947;50.842;6.084;2023-06-26T07:34:46;9.43;;;3.33;;
66143;SDS011;52947;50.842;6.084;2023-06-26T07:37:16;8.90;;;3.08;;
66143;SDS011;52947;50.842;6.084;2023-06-26T07:39:43;11.35;;;3.50;;
66143;SDS011;52947;50.842;6.084;2023-06-26T07:42:11;12.57;;;3.60;;
66143;SDS011;52947;50.842;6.084;2023-06-26T07:44:41;11.83;;;3.70;;
66143;SDS011;52947;50.842;6.084;2023-06-26T07:47:09;11.85;;;3.45;;
66143;SDS011;52947;50.842;6.084;2023-06-26T07:49:37;9.27;;;3.25;;
66143;SDS011;52947;50.842;6.084;2023-06-26T07:52:07;9.93;;;3.78;;
66143;SDS011;52947;50.842;6.084;2023-06-26T07:54:38;12.20;;;3.42;;
66143;SDS011;52947;50.842;6.084;2023-06-26T07:57:06;13.93;;;3.55;;
66143;SDS011;52947;50.842;6.084;2023-06-26T07:59:35;7.90;;;3.03;;
66143;SDS011;52947;50.842;6.084;2023-06-26T08:02:03;10.65;;;3.30;;
66143;SDS011;52947;50.842;6.084;2023-06-26T08:04:31;12.25;;;3.70;;
66143;SDS011;52947;50.842;6.084;2023-06-26T08:09:30;7.68;;;3.30;;
66143;SDS011;52947;50.842;6.084;2023-06-26T08:12:00;9.98;;;3.00;;
66143;SDS011;52947;50.842;6.084;2023-06-26T08:14:28;8.93;;;3.33;;
66143;SDS011;52947;50.842;6.084;2023-06-26T08:16:56;11.50;;;4.22;;
66143;SDS011;52947;50.842;6.084;2023-06-26T08:19:26;8.32;;;2.85;;
66143;SDS011;52947;50.842;6.084;2023-06-26T08:21:54;11.05;;;3.10;;
66143;SDS011;52947;50.842;6.084;2023-06-26T08:24:21;8.80;;;3.37;;
66143;SDS011;52947;50.842;6.084;2023-06-26T08:26:49;11.47;;;3.37;;
66143;SDS011;52947;50.842;6.084;2023-06-26T08:29:18;13.77;;;4.03;;
66143;SDS011;52947;50.842;6.084;2023-06-26T08:31:46;8.10;;;2.58;;
66143;SDS011;52947;50.842;6.084;2023-06-26T08:34:14;11.93;;;3.67;;
66143;SDS011;52947;50.842;6.084;2023-06-26T08:36:42;9.20;;;3.00;;
66143;SDS011;52947;50.842;6.084;2023-06-26T08:41:38;8.50;;;2.85;;
66143;SDS011;52947;50.842;6.084;2023-06-26T08:44:07;8.23;;;2.90;;
66143;SDS011;52947;50.842;6.084;2023-06-26T08:46:36;8.60;;;2.80;;
66143;SDS011;52947;50.842;6.084;2023-06-26T08:49:06;6.65;;;2.47;;
66143;SDS011;52947;50.842;6.084;2023-06-26T08:51:40;11.57;;;2.45;;
66143;SDS011;52947;50.842;6.084;2023-06-26T08:54:13;11.23;;;2.88;;
66143;SDS011;52947;50.842;6.084;2023-06-26T08:56:44;8.15;;;2.80;;
66143;SDS011;52947;50.842;6.084;2023-06-26T08:59:15;10.55;;;2.63;;
66143;SDS011;52947;50.842;6.084;2023-06-26T09:01:45;12.90;;;2.83;;
66143;SDS011;52947;50.842;6.084;2023-06-26T09:04:13;8.55;;;2.35;;
66143;SDS011;52947;50.842;6.084;2023-06-26T09:06:41;9.02;;;2.67;;
66143;SDS011;52947;50.842;6.084;2023-06-26T09:09:10;7.88;;;2.15;;
66143;SDS011;52947;50.842;6.084;2023-06-26T09:11:39;8.30;;;2.28;;
66143;SDS011;52947;50.842;6.084;2023-06-26T09:14:08;8.13;;;2.25;;
66143;SDS011;52947;50.842;6.084;2023-06-26T09:19:11;7.45;;;2.50;;
66143;SDS011;52947;50.842;6.084;2023-06-26T09:21:39;11.85;;;2.30;;
66143;SDS011;52947;50.842;6.084;2023-06-26T09:24:07;8.32;;;2.38;;
66143;SDS011;52947;50.842;6.084;2023-06-26T09:26:37;7.05;;;3.17;;
66143;SDS011;52947;50.842;6.084;2023-06-26T09:29:05;8.23;;;2.35;;
66143;SDS011;52947;50.842;6.084;2023-06-26T09:31:35;8.23;;;3.05;;
66143;SDS011;52947;50.842;6.084;2023-06-26T09:34:07;8.20;;;2.35;;
66143;SDS011;52947;50.842;6.084;2023-06-26T09:36:37;7.17;;;2.30;;
66143;SDS011;52947;50.842;6.084;2023-06-26T09:39:06;10.65;;;2.40;;
66143;SDS011;52947;50.842;6.084;2023-06-26T09:41:40;6.45;;;2.55;;
66143;SDS011;52947;50.842;6.084;2023-06-26T09:44:10;6.82;;;2.20;;
66143;SDS011;52947;50.842;6.084;2023-06-26T09:46:39;8.45;;;2.55;;
66143;SDS011;52947;50.842;6.084;2023-06-26T09:49:09;10.45;;;2.58;;
66143;SDS011;52947;50.842;6.084;2023-06-26T09:51:39;13.80;;;2.75;;
66143;SDS011;52947;50.842;6.084;2023-06-26T09:54:09;9.82;;;1.98;;
66143;SDS011;52947;50.842;6.084;2023-06-26T09:56:37;6.72;;;2.17;;
66143;SDS011;52947;50.842;6.084;2023-06-26T09:59:05;9.03;;;2.53;;
66143;SDS011;52947;50.842;6.084;2023-06-26T10:04:07;5.50;;;2.20;;
66143;SDS011;52947;50.842;6.084;2023-06-26T10:06:36;9.50;;;1.90;;
66143;SDS011;52947;50.842;6.084;2023-06-26T10:09:07;6.22;;;2.10;;
66143;SDS011;52947;50.842;6.084;2023-06-26T10:11:37;6.25;;;2.00;;
66143;SDS011;52947;50.842;6.084;2023-06-26T10:14:09;8.65;;;2.28;;
66143;SDS011;52947;50.842;6.084;2023-06-26T10:16:44;6.13;;;2.05;;
66143;SDS011;52947;50.842;6.084;2023-06-26T10:19:13;8.95;;;2.50;;
66143;SDS011;52947;50.842;6.084;2023-06-26T10:21:43;7.60;;;2.00;;
66143;SDS011;52947;50.842;6.084;2023-06-26T10:24:12;5.95;;;1.88;;
66143;SDS011;52947;50.842;6.084;2023-06-26T10:26:42;8.15;;;2.00;;
66143;SDS011;52947;50.842;6.084;2023-06-26T10:29:12;5.10;;;1.95;;
66143;SDS011;52947;50.842;6.084;2023-06-26T10:31:44;4.07;;;1.85;;
66143;SDS011;52947;50.842;6.084;2023-06-26T10:34:17;5.70;;;1.70;;
66143;SDS011;52947;50.842;6.084;2023-06-26T10:36:45;4.38;;;1.88;;
66143;SDS011;52947;50.842;6.084;2023-06-26T10:41:44;7.88;;;2.13;;
66143;SDS011;52947;50.842;6.084;2023-06-26T10:44:39;3.88;;;1.80;;
66143;SDS011;52947;50.842;6.084;2023-06-26T10:47:08;6.43;;;1.90;;
66143;SDS011;52947;50.842;6.084;2023-06-26T10:49:37;4.60;;;1.80;;
66143;SDS011;52947;50.842;6.084;2023-06-26T10:52:06;6.55;;;1.90;;
66143;SDS011;52947;50.842;6.084;2023-06-26T10:54:36;7.28;;;1.83;;
66143;SDS011;52947;50.842;6.084;2023-06-26T10:57:06;4.95;;;1.70;;
66143;SDS011;52947;50.842;6.084;2023-06-26T10:59:35;6.40;;;1.70;;
66143;SDS011;52947;50.842;6.084;2023-06-26T11:02:07;7.15;;;2.13;;
66143;SDS011;52947;50.842;6.084;2023-06-26T11:04:38;5.40;;;1.90;;
66143;SDS011;52947;50.842;6.084;2023-06-26T11:07:19;7.40;;;2.10;;
66143;SDS011;52947;50.842;6.084;2023-06-26T11:09:57;7.97;;;1.95;;
66143;SDS011;52947;50.842;6.084;2023-06-26T11:12:33;4.82;;;1.98;;
66143;SDS011;52947;50.842;6.084;2023-06-26T11:15:02;8.38;;;2.40;;
66143;SDS011;52947;50.842;6.084;2023-06-26T11:17:30;6.47;;;2.30;;
66143;SDS011;52947;50.842;6.084;2023-06-26T11:19:58;8.90;;;2.13;;
66143;SDS011;52947;50.842;6.084;2023-06-26T11:22:30;5.85;;;2.00;;
66143;SDS011;52947;50.842;6.084;2023-06-26T11:25:00;8.43;;;1.67;;
66143;SDS011;52947;50.842;6.084;2023-06-26T11:27:32;7.15;;;2.00;;
66143;SDS011;52947;50.842;6.084;2023-06-26T11:30:05;6.55;;;1.92;;
66143;SDS011;52947;50.842;6.084;2023-06-26T11:32:34;4.40;;;1.80;;
66143;SDS011;52947;50.842;6.084;2023-06-26T11:35:03;3.17;;;1.83;;
66143;SDS011;52947;50.842;6.084;2023-06-26T11:37:32;7.93;;;1.95;;
66143;SDS011;52947;50.842;6.084;2023-06-26T11:42:52;3.95;;;1.50;;
66143;SDS011;52947;50.842;6.084;2023-06-26T11:45:20;10.15;;;2.20;;
66143;SDS011;52947;50.842;6.084;2023-06-26T11:47:48;3.40;;;1.60;;
66143;SDS011;52947;50.842;6.084;2023-06-26T11:50:16;4.90;;;1.48;;
66143;SDS011;52947;50.842;6.084;2023-06-26T11:52:44;6.00;;;1.60;;
66143;SDS011;52947;50.842;6.084;2023-06-26T11:55:12;4.97;;;1.52;;
66143;SDS011;52947;50.842;6.084;2023-06-26T11:57:40;7.18;;;1.88;;
66143;SDS011;52947;50.842;6.084;2023-06-26T12:00:13;6.03;;;1.77;;
66143;SDS011;52947;50.842;6.084;2023-06-26T12:02:42;5.78;;;1.45;;
66143;SDS011;52947;50.842;6.084;2023-06-26T12:05:12;6.80;;;1.52;;
66143;SDS011;52947;50.842;6.084;2023-06-26T12:07:41;7.43;;;2.03;;
66143;SDS011;52947;50.842;6.084;2023-06-26T12:10:11;3.75;;;1.35;;
66143;SDS011;52947;50.842;6.084;2023-06-26T12:12:40;3.90;;;1.55;;
66143;SDS011;52947;50.842;6.084;2023-06-26T12:15:08;5.57;;;1.80;;
66143;SDS011;52947;50.842;6.084;2023-06-26T12:17:40;5.28;;;1.50;;
66143;SDS011;52947;50.842;6.084;2023-06-26T12:20:17;7.45;;;1.92;;
66143;SDS011;52947;50.842;6.084;2023-06-26T12:22:46;6.20;;;1.50;;
66143;SDS011;52947;50.842;6.084;2023-06-26T12:25:15;4.90;;;1.55;;
66143;SDS011;52947;50.842;6.084;2023-06-26T12:27:49;5.47;;;1.73;;
66143;SDS011;52947;50.842;6.084;2023-06-26T12:30:18;4.83;;;1.50;;
66143;SDS011;52947;50.842;6.084;2023-06-26T12:32:47;8.60;;;1.47;;
66143;SDS011;52947;50.842;6.084;2023-06-26T12:35:15;2.20;;;1.50;;
66143;SDS011;52947;50.842;6.084;2023-06-26T12:37:43;6.00;;;1.60;;
66143;SDS011;52947;50.842;6.084;2023-06-26T12:40:16;4.45;;;1.73;;
66143;SDS011;52947;50.842;6.084;2023-06-26T12:42:45;5.82;;;1.70;;
66143;SDS011;52947;50.842;6.084;2023-06-26T12:45:13;3.10;;;1.50;;
66143;SDS011;52947;50.842;6.084;2023-06-26T12:48:07;5.40;;;1.50;;
66143;SDS011;52947;50.842;6.084;2023-06-26T12:50:37;7.00;;;1.80;;
66143;SDS011;52947;50.842;6.084;2023-06-26T12:53:06;6.22;;;1.52;;
66143;SDS011;52947;50.842;6.084;2023-06-26T12:55:34;6.87;;;1.63;;
66143;SDS011;52947;50.842;6.084;2023-06-26T12:58:03;6.53;;;1.50;;
66143;SDS011;52947;50.842;6.084;2023-06-26T13:00:31;3.90;;;1.60;;
66143;SDS011;52947;50.842;6.084;2023-06-26T13:03:00;7.28;;;1.50;;
66143;SDS011;52947;50.842;6.084;2023-06-26T13:05:29;5.72;;;1.40;;
66143;SDS011;52947;50.842;6.084;2023-06-26T13:07:57;8.65;;;1.58;;
66143;SDS011;52947;50.842;6.084;2023-06-26T13:10:26;4.85;;;1.50;;
66143;SDS011;52947;50.842;6.084;2023-06-26T13:12:55;6.35;;;1.92;;
66143;SDS011;52947;50.842;6.084;2023-06-26T13:15:23;7.03;;;1.43;;
66143;SDS011;52947;50.842;6.084;2023-06-26T13:17:51;4.65;;;1.52;;
66143;SDS011;52947;50.842;6.084;2023-06-26T13:20:19;5.50;;;1.17;;
66143;SDS011;52947;50.842;6.084;2023-06-26T13:22:48;3.17;;;1.30;;
66143;SDS011;52947;50.842;6.084;2023-06-26T13:25:16;7.15;;;1.60;;
66143;SDS011;52947;50.842;6.084;2023-06-26T13:27:44;7.30;;;1.87;;
66143;SDS011;52947;50.842;6.084;2023-06-26T13:30:12;4.90;;;1.60;;
66143;SDS011;52947;50.842;6.084;2023-06-26T13:32:43;8.32;;;1.40;;
66143;SDS011;52947;50.842;6.084;2023-06-26T13:35:12;9.25;;;1.55;;
66143;SDS011;52947;50.842;6.084;2023-06-26T13:37:41;3.08;;;1.17;;
66143;SDS011;52947;50.842;6.084;2023-06-26T13:40:11;5.50;;;1.73;;
66143;SDS011;52947;50.842;6.084;2023-06-26T13:42:39;6.28;;;1.42;;
66143;SDS011;52947;50.842;6.084;2023-06-26T13:45:09;5.68;;;2.00;;
66143;SDS011;52947;50.842;6.084;2023-06-26T13:47:56;3.00;;;1.27;;
66143;SDS011;52947;50.842;6.084;2023-06-26T13:50:24;5.05;;;1.25;;
66143;SDS011;52947;50.842;6.084;2023-06-26T13:53:03;2.38;;;1.27;;
66143;SDS011;52947;50.842;6.084;2023-06-26T13:55:33;3.17;;;1.40;;
66143;SDS011;52947;50.842;6.084;2023-06-26T13:58:04;2.67;;;1.20;;
66143;SDS011;52947;50.842;6.084;2023-06-26T14:00:33;7.22;;;1.48;;
66143;SDS011;52947;50.842;6.084;2023-06-26T14:03:02;10.93;;;1.80;;
66143;SDS011;52947;50.842;6.084;2023-06-26T14:05:33;5.40;;;1.67;;
66143;SDS011;52947;50.842;6.084;2023-06-26T14:08:02;6.13;;;1.80;;
66143;SDS011;52947;50.842;6.084;2023-06-26T14:10:30;5.68;;;1.55;;
66143;SDS011;52947;50.842;6.084;2023-06-26T14:13:00;5.60;;;1.30;;
66143;SDS011;52947;50.842;6.084;2023-06-26T14:15:29;3.65;;;1.35;;
66143;SDS011;52947;50.842;6.084;2023-06-26T14:17:57;3.27;;;1.80;;
66143;SDS011;52947;50.842;6.084;2023-06-26T14:20:26;4.78;;;1.67;;
66143;SDS011;52947;50.842;6.084;2023-06-26T14:22:54;5.72;;;1.88;;
66143;SDS011;52947;50.842;6.084;2023-06-26T14:25:22;4.60;;;1.20;;
66143;SDS011;52947;50.842;6.084;2023-06-26T14:27:50;4.90;;;1.65;;
66143;SDS011;52947;50.842;6.084;2023-06-26T14:30:19;5.93;;;1.60;;
66143;SDS011;52947;50.842;6.084;2023-06-26T14:32:47;4.50;;;1.30;;
66143;SDS011;52947;50.842;6.084;2023-06-26T14:35:15;6.85;;;1.60;;
66143;SDS011;52947;50.842;6.084;2023-06-26T14:37:43;5.47;;;1.10;;
66143;SDS011;52947;50.842;6.084;2023-06-26T14:40:11;2.13;;;1.37;;
66143;SDS011;52947;50.842;6.084;2023-06-26T14:42:40;3.42;;;1.35;;
66143;SDS011;52947;50.842;6.084;2023-06-26T14:45:10;5.50;;;1.60;;
66143;SDS011;52947;50.842;6.084;2023-06-26T14:47:40;5.82;;;1.70;;
66143;SDS011;52947;50.842;6.084;2023-06-26T14:50:08;7.82;;;1.73;;
66143;SDS011;52947;50.842;6.084;2023-06-26T14:52:37;8.90;;;1.65;;
66143;SDS011;52947;50.842;6.084;2023-06-26T14:55:05;3.40;;;1.60;;
66143;SDS011;52947;50.842;6.084;2023-06-26T14:57:34;5.40;;;1.60;;
66143;SDS011;52947;50.842;6.084;2023-06-26T15:00:02;5.10;;;1.48;;
66143;SDS011;52947;50.842;6.084;2023-06-26T15:02:30;5.05;;;1.40;;
66143;SDS011;52947;50.842;6.084;2023-06-26T15:05:00;4.53;;;1.50;;
66143;SDS011;52947;50.842;6.084;2023-06-26T15:07:27;3.83;;;1.52;;
66143;SDS011;52947;50.842;6.084;2023-06-26T15:09:56;6.33;;;1.50;;
66143;SDS011;52947;50.842;6.084;2023-06-26T15:12:24;3.80;;;1.40;;
66143;SDS011;52947;50.842;6.084;2023-06-26T15:14:53;6.43;;;1.45;;
66143;SDS011;52947;50.842;6.084;2023-06-26T15:17:22;10.18;;;1.30;;
66143;SDS011;52947;50.842;6.084;2023-06-26T15:19:49;9.02;;;1.92;;
66143;SDS011;52947;50.842;6.084;2023-06-26T15:22:21;3.60;;;1.83;;
66143;SDS011;52947;50.842;6.084;2023-06-26T15:24:50;2.50;;;1.27;;
66143;SDS011;52947;50.842;6.084;2023-06-26T15:27:17;6.38;;;1.50;;